createdAt,value
2023-02-13T00:01:22.321Z,8.85
2023-02-13T00:03:52.323Z,9.05
2023-02-13T00:06:38.954Z,8.32
2023-02-13T00:09:12.133Z,7.75
2023-02-13T00:11:51.892Z,8.07
2023-02-13T00:14:21.891Z,8.70
2023-02-13T00:16:54.059Z,8.73
2023-02-13T00:19:21.212Z,9.07
2023-02-13T00:21:50.589Z,8.77
2023-02-13T00:24:17.551Z,8.82
2023-02-13T00:26:47.480Z,8.95
2023-02-13T00:29:14.176Z,9.43
2023-02-13T00:31:44.250Z,8.50
2023-02-13T00:34:11.099Z,8.32
2023-02-13T00:36:45.566Z,8.30
2023-02-13T00:39:13.197Z,8.73
2023-02-13T00:41:58.551Z,8.90
2023-02-13T00:44:25.391Z,9.98
2023-02-13T00:46:55.261Z,9.95
2023-02-13T00:49:25.500Z,9.95
2023-02-13T00:51:52.455Z,8.82
2023-02-13T00:54:19.187Z,9.23
2023-02-13T00:56:53.228Z,9.63
2023-02-13T00:59:20.042Z,9.82
2023-02-13T01:01:54.136Z,9.90
2023-02-13T01:04:20.912Z,9.48
2023-02-13T01:06:47.587Z,9.15
2023-02-13T01:09:14.356Z,9.20
2023-02-13T01:11:54.508Z,9.70
2023-02-13T01:14:21.443Z,10.18
2023-02-13T01:16:55.684Z,9.82
2023-02-13T01:22:00.429Z,9.30
2023-02-13T01:24:29.977Z,9.68
2023-02-13T01:26:56.692Z,9.18
2023-02-13T01:29:29.253Z,9.27
2023-02-13T01:31:56.142Z,8.55
2023-02-13T01:34:22.920Z,10.32
2023-02-13T01:36:55.602Z,9.60
2023-02-13T01:39:26.033Z,8.48
2023-02-13T01:41:52.710Z,9.10
2023-02-13T01:45:17.760Z,9.70
2023-02-13T01:48:15.522Z,8.73
2023-02-13T01:51:14.834Z,8.95
2023-02-13T01:54:04.597Z,9.10
2023-02-13T01:56:55.579Z,9.75
2023-02-13T02:00:03.078Z,8.68
2023-02-13T02:02:38.773Z,9.10
2023-02-13T02:05:12.381Z,8.98
2023-02-13T02:07:47.595Z,9.30
2023-02-13T02:10:24.951Z,8.73
2023-02-13T02:13:21.320Z,8.90
2023-02-13T02:15:53.015Z,8.07
2023-02-13T02:18:24.467Z,9.68
2023-02-13T02:21:13.246Z,7.57
2023-02-13T02:24:56.363Z,9.23
2023-02-13T02:27:52.557Z,8.52
2023-02-13T02:30:55.969Z,8.85
2023-02-13T02:33:52.537Z,7.85
2023-02-13T02:37:13.385Z,9.20
2023-02-13T02:40:17.801Z,9.07
2023-02-13T02:43:25.784Z,8.10
2023-02-13T02:46:32.606Z,9.90
2023-02-13T02:49:45.382Z,9.32
2023-02-13T02:52:59.730Z,8.32
2023-02-13T02:56:21.675Z,8.75
2023-02-13T02:59:19.034Z,9.25
2023-02-13T03:02:14.952Z,9.05
2023-02-13T03:05:20.615Z,7.82
2023-02-13T03:07:56.171Z,8.38
2023-02-13T03:10:57.122Z,8.30
2023-02-13T03:13:53.263Z,8.20
2023-02-13T03:16:46.473Z,8.82
2023-02-13T03:20:09.737Z,8.30
2023-02-13T03:23:15.700Z,8.05
2023-02-13T03:26:54.199Z,8.68
2023-02-13T03:30:07.456Z,7.78
2023-02-13T03:33:50.277Z,7.80
2023-02-13T03:37:31.591Z,7.88
2023-02-13T03:40:16.245Z,9.13
2023-02-13T03:45:53.256Z,7.35
2023-02-13T03:48:59.418Z,8.38
2023-02-13T03:52:07.302Z,7.90
2023-02-13T03:55:25.807Z,8.48
2023-02-13T03:59:12.783Z,7.68
2023-02-13T04:01:52.886Z,8.10
2023-02-13T04:04:34.432Z,7.90
2023-02-13T04:07:11.740Z,7.90
2023-02-13T04:09:44.183Z,9.10
2023-02-13T04:12:27.054Z,7.80
2023-02-13T04:15:24.651Z,7.35
2023-02-13T04:18:10.927Z,8.02
2023-02-13T04:20:44.893Z,9.20
2023-02-13T04:23:13.487Z,7.90
2023-02-13T04:25:51.873Z,8.48
2023-02-13T04:28:18.846Z,8.15
2023-02-13T04:30:45.886Z,8.77
2023-02-13T04:33:12.808Z,8.15
2023-02-13T04:35:41.623Z,8.23
2023-02-13T04:38:08.529Z,9.80
2023-02-13T04:40:40.280Z,9.32
2023-02-13T04:43:07.273Z,10.13
2023-02-13T04:45:33.904Z,11.43
2023-02-13T04:48:00.697Z,10.70
2023-02-13T04:50:27.477Z,12.13
2023-02-13T04:53:01.633Z,10.93
2023-02-13T04:55:28.796Z,11.18
2023-02-13T04:58:01.895Z,11.63
2023-02-13T05:00:30.513Z,12.13
2023-02-13T05:03:10.240Z,12.25
2023-02-13T05:05:37.681Z,11.68
2023-02-13T05:08:09.028Z,11.85
2023-02-13T05:10:36.032Z,12.40
2023-02-13T05:13:02.951Z,13.30
2023-02-13T05:15:29.949Z,13.50
2023-02-13T05:17:56.666Z,12.70
2023-02-13T05:20:27.901Z,12.45
2023-02-13T05:23:13.557Z,10.93
2023-02-13T05:25:45.065Z,12.65
2023-02-13T05:28:30.184Z,12.68
2023-02-13T05:30:59.213Z,13.00
2023-02-13T05:33:29.351Z,11.20
2023-02-13T05:35:56.046Z,10.40
2023-02-13T05:38:22.937Z,11.57
2023-02-13T05:40:59.208Z,12.30
2023-02-13T05:43:35.622Z,12.38
2023-02-13T05:46:10.251Z,13.10
2023-02-13T05:48:37.136Z,13.07
2023-02-13T05:51:04.941Z,13.65
2023-02-13T05:58:59.978Z,13.73
2023-02-13T06:12:13.814Z,14.90
2023-02-13T06:28:17.437Z,12.52
2023-02-13T06:30:44.567Z,12.35
2023-02-13T06:35:55.163Z,13.47
2023-02-13T07:22:05.548Z,14.45
2023-02-13T07:48:52.444Z,14.23
2023-02-13T08:10:33.384Z,12.45
2023-02-13T08:13:00.934Z,13.40
2023-02-13T08:15:27.698Z,12.85
2023-02-13T08:17:57.457Z,12.98
2023-02-13T08:20:27.130Z,12.90
2023-02-13T08:23:06.332Z,12.77
2023-02-13T08:25:34.377Z,12.70
2023-02-13T08:28:05.403Z,11.80
2023-02-13T08:30:32.536Z,11.32
2023-02-13T08:32:59.366Z,12.25
2023-02-13T08:35:31.948Z,12.68
2023-02-13T08:38:05.178Z,10.90
2023-02-13T08:40:32.966Z,10.32
2023-02-13T08:43:05.232Z,10.60
2023-02-13T08:45:33.784Z,10.35
2023-02-13T08:48:01.231Z,10.23
2023-02-13T08:50:28.786Z,10.77
2023-02-13T08:52:58.704Z,9.90
2023-02-13T08:55:31.522Z,9.80
2023-02-13T08:58:07.531Z,8.27
2023-02-13T09:00:34.182Z,9.70
2023-02-13T09:03:05.025Z,10.27
2023-02-13T09:05:32.474Z,10.43
2023-02-13T09:08:03.973Z,9.85
2023-02-13T09:10:33.175Z,9.80
2023-02-13T09:13:01.311Z,9.43
2023-02-13T09:15:28.033Z,8.80
2023-02-13T09:17:58.066Z,9.38
2023-02-13T09:20:27.619Z,7.82
2023-02-13T09:22:57.893Z,8.88
2023-02-13T09:25:25.031Z,9.43
2023-02-13T09:27:51.718Z,8.38
2023-02-13T09:30:24.659Z,8.38
2023-02-13T09:32:53.508Z,9.05
2023-02-13T09:35:22.846Z,7.05
2023-02-13T09:37:52.567Z,8.98
2023-02-13T09:41:03.496Z,9.32
2023-02-13T09:44:02.447Z,7.72
2023-02-13T09:46:47.208Z,8.30
2023-02-13T09:49:28.035Z,8.07
2023-02-13T09:51:58.125Z,8.80
2023-02-13T09:54:30.680Z,8.85
2023-02-13T09:57:31.417Z,8.02
2023-02-13T10:00:25.946Z,8.85
2023-02-13T10:03:19.534Z,8.10
2023-02-13T10:06:51.907Z,8.93
2023-02-13T10:09:54.031Z,9.10
2023-02-13T10:13:08.152Z,8.73
2023-02-13T10:16:01.883Z,8.68
2023-02-13T10:19:03.163Z,9.07
2023-02-13T10:21:42.773Z,8.75
2023-02-13T10:24:32.928Z,8.43
2023-02-13T10:27:17.296Z,8.15
2023-02-13T10:30:28.090Z,8.55
2023-02-13T10:33:29.840Z,9.43
2023-02-13T10:36:41.774Z,8.07
2023-02-13T10:39:18.170Z,9.55
2023-02-13T10:42:09.469Z,8.40
2023-02-13T10:48:35.035Z,9.77
2023-02-13T10:51:52.179Z,9.93
2023-02-13T10:55:16.603Z,9.98
2023-02-13T10:58:50.125Z,9.07
2023-02-13T11:01:41.982Z,9.18
2023-02-13T11:04:18.031Z,10.05
2023-02-13T11:07:02.975Z,10.57
2023-02-13T11:09:41.501Z,9.23
2023-02-13T11:12:31.662Z,9.98
2023-02-13T11:15:31.719Z,9.02
2023-02-13T11:18:19.888Z,10.30
2023-02-13T11:20:49.603Z,9.35
2023-02-13T11:23:36.652Z,9.38
2023-02-13T11:26:21.694Z,10.88
2023-02-13T11:29:03.146Z,9.48
2023-02-13T11:58:32.209Z,9.18
2023-02-13T13:15:13.621Z,7.93
2023-02-13T13:18:01.711Z,6.88
2023-02-13T13:21:07.656Z,6.43
2023-02-13T13:24:32.436Z,6.72
2023-02-13T13:27:03.646Z,7.25
2023-02-13T13:30:34.427Z,7.32
2023-02-13T13:33:22.730Z,7.70
2023-02-13T13:36:24.374Z,10.38
2023-02-13T13:39:30.595Z,8.90
2023-02-13T13:42:51.787Z,7.88
2023-02-13T13:45:41.318Z,6.80
2023-02-13T13:49:06.959Z,6.72
2023-02-13T13:51:33.961Z,6.93
2023-02-13T13:54:06.550Z,7.13
2023-02-13T13:57:03.617Z,7.63
2023-02-13T13:59:33.402Z,7.13
2023-02-13T14:02:18.145Z,6.55
2023-02-13T14:05:26.094Z,8.00
2023-02-13T14:08:33.292Z,6.38
2023-02-13T14:11:07.332Z,6.55
2023-02-13T14:13:40.493Z,6.47
2023-02-13T14:16:32.118Z,6.75
2023-02-13T14:19:04.668Z,7.15
2023-02-13T14:21:32.176Z,6.18
2023-02-13T14:24:06.607Z,6.07
2023-02-13T14:26:43.348Z,6.50
2023-02-13T14:29:43.870Z,6.07
2023-02-13T14:32:43.298Z,6.65
2023-02-13T14:35:32.740Z,6.63
2023-02-13T14:38:10.889Z,6.32
2023-02-13T14:40:54.680Z,6.60
2023-02-13T14:43:56.171Z,6.70
2023-02-13T14:46:47.920Z,6.45
2023-02-13T14:49:34.409Z,7.30
2023-02-13T14:52:13.619Z,6.90
2023-02-13T14:55:02.204Z,7.65
2023-02-13T14:57:42.002Z,7.75
2023-02-13T15:00:44.119Z,6.57
2023-02-13T15:03:19.982Z,7.40
2023-02-13T15:05:59.760Z,6.88
2023-02-13T15:08:36.901Z,7.32
2023-02-13T15:11:27.705Z,6.63
2023-02-13T15:13:54.526Z,7.80
2023-02-13T15:16:24.065Z,7.20
2023-02-13T15:18:55.774Z,7.00
2023-02-13T15:21:33.088Z,7.18
2023-02-13T15:24:00.065Z,7.50
2023-02-13T15:26:28.788Z,7.85
2023-02-13T15:29:29.213Z,7.22
2023-02-13T15:31:59.383Z,8.52
2023-02-13T15:34:34.979Z,7.80
2023-02-13T15:37:03.009Z,6.93
2023-02-13T15:39:35.408Z,7.68
2023-02-13T15:42:06.384Z,8.32
2023-02-13T15:44:41.507Z,9.43
2023-02-13T15:47:25.514Z,9.68
2023-02-13T15:49:52.489Z,8.73
2023-02-13T15:52:33.777Z,8.45
2023-02-13T15:55:00.950Z,7.95
2023-02-13T15:57:29.497Z,9.70
2023-02-13T15:59:59.448Z,8.30
2023-02-13T16:02:50.320Z,8.57
2023-02-13T16:05:26.568Z,8.98
2023-02-13T16:08:35.991Z,8.35
2023-02-13T16:11:45.861Z,7.72
2023-02-13T16:14:35.881Z,8.82
2023-02-13T16:17:18.472Z,8.38
2023-02-13T16:20:28.427Z,8.02
2023-02-13T16:23:02.916Z,8.48
2023-02-13T16:25:38.587Z,8.48
2023-02-13T16:28:27.333Z,8.82
2023-02-13T16:31:02.667Z,9.52
2023-02-13T16:34:07.766Z,9.20
2023-02-13T16:36:34.590Z,9.55
2023-02-13T16:39:21.332Z,9.52
2023-02-13T16:41:55.302Z,9.07
2023-02-13T16:44:32.859Z,8.93
2023-02-13T16:47:19.563Z,9.93
2023-02-13T16:49:57.389Z,9.30
2023-02-13T16:52:26.687Z,9.63
2023-02-13T16:55:08.293Z,10.18
2023-02-13T16:57:35.732Z,8.90
2023-02-13T17:00:27.757Z,8.80
2023-02-13T17:02:54.505Z,9.65
2023-02-13T17:05:28.337Z,7.75
2023-02-13T17:07:58.625Z,8.95
2023-02-13T17:10:37.526Z,8.73
2023-02-13T17:13:12.928Z,9.88
2023-02-13T17:15:50.685Z,10.45
2023-02-13T17:18:17.778Z,9.10
2023-02-13T17:20:45.823Z,11.68
2023-02-13T17:23:22.541Z,10.90
2023-02-13T17:25:53.897Z,8.63
2023-02-13T17:28:29.223Z,8.55
2023-02-13T17:31:01.671Z,8.73
2023-02-13T17:33:36.719Z,8.63
2023-02-13T17:36:04.222Z,7.88
2023-02-13T17:38:30.872Z,9.65
2023-02-13T17:41:00.853Z,8.98
2023-02-13T17:43:27.985Z,8.52
2023-02-13T17:45:54.700Z,8.90
2023-02-13T17:48:21.466Z,8.70
2023-02-13T17:50:52.432Z,9.23
2023-02-13T17:53:26.737Z,9.55
2023-02-13T17:58:24.755Z,9.30
2023-02-13T18:00:51.621Z,9.02
2023-02-13T18:03:19.165Z,10.13
2023-02-13T18:51:57.120Z,9.32
2023-02-13T19:59:51.561Z,10.68
2023-02-13T20:18:37.556Z,10.27
2023-02-13T20:26:38.046Z,12.43
2023-02-13T20:39:56.147Z,10.60
2023-02-13T20:45:07.783Z,13.10
2023-02-13T20:47:34.448Z,12.85
2023-02-13T20:50:01.236Z,13.90
2023-02-13T20:52:27.972Z,14.48
2023-02-13T20:55:06.471Z,11.98
2023-02-13T20:57:36.615Z,12.63
2023-02-13T21:00:15.898Z,11.65
2023-02-13T21:02:42.612Z,12.68
2023-02-13T21:05:09.303Z,13.55
2023-02-13T21:07:36.287Z,12.20
2023-02-13T21:10:03.065Z,11.98
2023-02-13T21:12:29.724Z,10.57
2023-02-13T21:14:56.434Z,11.90
2023-02-13T21:17:23.246Z,11.90
2023-02-13T21:19:50.238Z,11.00
2023-02-13T21:22:17.093Z,10.43
2023-02-13T21:24:44.297Z,9.50
2023-02-13T21:27:11.594Z,9.63
2023-02-13T21:29:38.506Z,10.18
2023-02-13T21:32:05.677Z,10.13
2023-02-13T21:34:32.678Z,9.27
2023-02-13T21:37:05.357Z,9.80
2023-02-13T21:39:33.926Z,8.85
2023-02-13T21:42:00.570Z,9.73
2023-02-13T21:44:30.553Z,9.85
2023-02-13T21:46:57.479Z,10.15
2023-02-13T21:49:25.689Z,9.27
2023-02-13T21:51:58.361Z,10.38
2023-02-13T21:54:25.365Z,9.55
2023-02-13T21:59:34.928Z,9.63
2023-02-13T22:02:02.707Z,9.73
2023-02-13T22:04:35.275Z,9.82
2023-02-13T22:07:04.644Z,9.45
2023-02-13T22:09:37.879Z,9.18
2023-02-13T22:12:05.228Z,9.32
2023-02-13T22:14:31.881Z,10.27
2023-02-13T22:16:58.619Z,9.13
2023-02-13T22:19:31.211Z,9.75
2023-02-13T22:22:03.575Z,9.77
2023-02-13T22:24:31.535Z,10.38
2023-02-13T22:27:05.855Z,10.50
2023-02-13T22:32:06.664Z,9.63
2023-02-13T22:34:36.470Z,10.23
2023-02-13T22:37:03.276Z,9.27
2023-02-13T22:39:31.469Z,9.43
2023-02-13T22:42:09.742Z,10.13
2023-02-13T22:44:41.990Z,11.57
2023-02-13T22:47:08.662Z,9.82
2023-02-13T22:49:38.255Z,9.98
2023-02-13T22:52:06.133Z,9.57
2023-02-13T22:54:33.154Z,9.75
2023-02-13T22:57:06.413Z,10.05
2023-02-13T22:59:37.802Z,11.57
2023-02-13T23:02:08.419Z,10.57
2023-02-13T23:04:37.810Z,11.07
2023-02-13T23:07:07.627Z,9.90
2023-02-13T23:09:34.378Z,9.90
2023-02-13T23:12:20.216Z,10.48
2023-02-13T23:14:46.957Z,11.20
2023-02-13T23:17:45.646Z,10.10
2023-02-13T23:20:13.124Z,10.48
2023-02-13T23:22:42.613Z,10.38
2023-02-13T23:25:11.858Z,9.57
2023-02-13T23:27:42.194Z,10.18
2023-02-13T23:30:13.069Z,10.57
2023-02-13T23:32:39.958Z,11.30
2023-02-13T23:35:09.578Z,10.70
2023-02-13T23:37:37.773Z,12.13
2023-02-13T23:40:06.573Z,11.45
2023-02-13T23:42:35.801Z,9.65
2023-02-13T23:45:03.881Z,9.23
2023-02-13T23:47:30.804Z,10.70
2023-02-13T23:49:57.657Z,9.70
2023-02-13T23:52:26.908Z,11.27
2023-02-13T23:54:53.585Z,10.65
2023-02-13T23:57:20.595Z,9.80
2023-02-13T23:59:47.251Z,9.25
